Time;durP1;ratioP1;P1;durP2;ratioP2;P2;SDS_P1;SDS_P2;PMS_P1;PMS_P2;Temp;Humidity;BMP_temperature;BMP_pressure;BME280_temperature;BME280_humidity;BME280_pressure;Samples;Min_cycle;Max_cycle;Signal;HPM_P1;HPM_P2
2023/12/19 00:01:44;;;;;;;12.10;9.35;;;;;;;4.90;93.87;100599.41;5093169;28;20028;-72
2023/12/19 00:04:09;;;;;;;15.75;10.32;;;;;;;4.95;93.82;100601.34;5095999;28;20039;-72
2023/12/19 00:06:35;;;;;;;13.70;8.90;;;;;;;4.98;93.19;100592.50;5110910;28;20420;-72
2023/12/19 00:09:01;;;;;;;13.50;8.95;;;;;;;5.08;93.14;100598.09;5085729;28;20385;-72
2023/12/19 00:11:26;;;;;;;14.30;9.32;;;;;;;4.99;92.57;100591.41;5113393;28;20504;-71
2023/12/19 00:13:51;;;;;;;17.55;10.02;;;;;;;4.92;92.91;100595.25;5114432;28;20484;-72
2023/12/19 00:16:17;;;;;;;17.65;9.90;;;;;;;5.01;92.27;100598.34;5094941;28;20050;-72
2023/12/19 00:18:42;;;;;;;16.08;9.80;;;;;;;5.00;91.93;100601.38;5091262;28;20047;-72
2023/12/19 00:21:08;;;;;;;14.88;9.52;;;;;;;4.91;92.31;100606.63;5094059;28;20077;-72
2023/12/19 00:23:33;;;;;;;15.68;9.80;;;;;;;4.80;92.29;100611.25;5107318;28;20039;-72
2023/12/19 00:25:59;;;;;;;14.98;9.57;;;;;;;4.87;92.51;100613.78;5113620;28;20485;-72
2023/12/19 00:28:27;;;;;;;16.80;10.00;;;;;;;4.78;92.27;100597.69;5101119;28;20093;-72
2023/12/19 00:30:55;;;;;;;16.98;10.70;;;;;;;4.70;93.44;100605.63;5093894;28;20030;-72
2023/12/19 00:33:22;;;;;;;17.15;10.27;;;;;;;4.68;93.88;100616.16;5093606;28;20061;-72
2023/12/19 00:35:47;;;;;;;18.35;10.35;;;;;;;4.74;93.69;100604.03;5075491;28;20021;-72
2023/12/19 00:38:13;;;;;;;14.02;9.40;;;;;;;4.66;93.45;100607.28;5092839;28;20107;-72
2023/12/19 00:40:38;;;;;;;14.02;9.55;;;;;;;4.65;93.95;100614.78;5093113;28;20016;-75
2023/12/19 00:43:04;;;;;;;18.17;10.63;;;;;;;4.65;93.18;100614.78;5075468;28;20024;-74
2023/12/19 00:45:29;;;;;;;21.42;10.82;;;;;;;4.63;93.88;100615.03;5093502;28;20027;-74
2023/12/19 00:47:55;;;;;;;21.58;12.80;;;;;;;4.43;95.22;100603.81;5098530;28;20039;-74
2023/12/19 00:50:20;;;;;;;21.75;12.65;;;;;;;4.34;96.23;100603.47;5095506;28;20022;-74
2023/12/19 00:52:46;;;;;;;20.40;11.95;;;;;;;4.40;96.72;100602.41;5095736;28;20475;-74
2023/12/19 00:55:11;;;;;;;18.60;11.50;;;;;;;4.37;97.46;100607.66;5112639;28;20488;-74
2023/12/19 00:57:37;;;;;;;18.00;10.40;;;;;;;4.44;97.57;100605.47;5113435;28;20019;-74
2023/12/19 01:00:04;;;;;;;19.63;11.18;;;;;;;4.33;98.34;100607.34;5095473;28;20047;-74
2023/12/19 01:02:31;;;;;;;17.05;10.70;;;;;;;4.38;98.32;100612.09;5113413;28;20029;-74
2023/12/19 01:04:57;;;;;;;17.58;11.80;;;;;;;4.46;98.05;100606.03;5095070;28;20105;-74
2023/12/19 01:07:23;;;;;;;19.52;12.25;;;;;;;4.52;98.11;100605.00;5095119;28;20047;-74
2023/12/19 01:09:49;;;;;;;19.63;11.90;;;;;;;4.42;98.06;100591.06;5112210;28;20024;-74
2023/12/19 01:12:15;;;;;;;17.58;10.90;;;;;;;4.41;97.52;100598.56;5113503;28;20023;-74
2023/12/19 01:14:42;;;;;;;17.27;10.52;;;;;;;4.30;97.48;100592.09;5094905;28;20022;-74
2023/12/19 01:17:07;;;;;;;17.83;11.95;;;;;;;4.17;97.17;100598.06;5095014;28;20011;-74
2023/12/19 01:19:33;;;;;;;18.30;11.13;;;;;;;4.16;97.78;100586.19;5113265;28;20294;-74
2023/12/19 01:21:59;;;;;;;15.35;9.40;;;;;;;4.07;97.67;100580.28;5094985;28;20047;-74
2023/12/19 01:24:24;;;;;;;14.40;10.30;;;;;;;4.14;96.75;100570.91;5105502;28;20035;-74
2023/12/19 01:26:51;;;;;;;14.65;10.00;;;;;;;4.17;96.90;100575.91;5092108;28;20420;-74
2023/12/19 01:29:17;;;;;;;12.23;8.82;;;;;;;4.35;96.02;100577.44;5077122;28;20031;-74
2023/12/19 01:31:43;;;;;;;11.18;7.32;;;;;;;4.39;95.24;100566.66;5113017;28;20016;-74
2023/12/19 01:34:09;;;;;;;12.45;8.13;;;;;;;4.53;93.11;100565.09;5081615;28;20035;-74
2023/12/19 01:36:34;;;;;;;12.75;7.47;;;;;;;4.67;92.38;100564.59;5092509;28;20016;-74
2023/12/19 01:39:00;;;;;;;12.98;8.32;;;;;;;4.60;92.78;100568.47;5074296;28;20071;-74
2023/12/19 01:41:26;;;;;;;14.45;8.90;;;;;;;4.49;93.54;100563.97;5074225;28;20027;-74
2023/12/19 01:43:59;;;;;;;18.10;9.80;;;;;;;4.42;94.67;100566.13;5073920;28;20039;-74
2023/12/19 01:46:25;;;;;;;17.23;8.75;;;;;;;4.21;95.56;100552.13;5073998;28;20016;-74
2023/12/19 01:48:50;;;;;;;15.32;9.15;;;;;;;4.00;96.72;100552.00;5092325;28;20381;-73
2023/12/19 01:51:17;;;;;;;20.80;11.65;;;;;;;3.87;97.71;100563.50;5092315;28;20032;-73
2023/12/19 01:53:44;;;;;;;17.38;10.82;;;;;;;3.82;98.25;100560.69;5091182;28;20027;-72
2023/12/19 01:56:11;;;;;;;16.38;11.23;;;;;;;3.63;98.79;100555.53;5074046;28;20474;-72
2023/12/19 01:58:37;;;;;;;17.08;13.00;;;;;;;3.46;100.00;100552.88;5073901;28;20024;-72
2023/12/19 02:01:04;;;;;;;19.38;11.68;;;;;;;3.51;100.00;100556.53;5100275;28;20079;-72
2023/12/19 02:03:31;;;;;;;14.30;9.52;;;;;;;3.41;100.00;100550.88;5094545;28;20557;-72
2023/12/19 02:05:57;;;;;;;18.75;10.95;;;;;;;3.43;100.00;100557.00;5087106;28;20071;-72
2023/12/19 02:08:23;;;;;;;16.73;10.27;;;;;;;3.34;100.00;100561.31;5094243;28;20030;-72
2023/12/19 02:10:48;;;;;;;18.13;11.23;;;;;;;3.22;100.00;100547.66;5094024;28;20011;-72
2023/12/19 02:13:14;;;;;;;17.90;11.23;;;;;;;3.28;100.00;100557.66;5112151;28;20510;-72
2023/12/19 02:15:39;;;;;;;18.73;12.05;;;;;;;3.36;100.00;100551.66;5110849;28;20523;-72
2023/12/19 02:18:15;;;;;;;21.83;13.20;;;;;;;3.36;100.00;100564.66;5093968;28;20054;-71
2023/12/19 02:20:40;;;;;;;16.75;9.77;;;;;;;3.35;100.00;100549.16;5111626;28;20023;-71
2023/12/19 02:23:06;;;;;;;12.02;8.73;;;;;;;3.39;100.00;100555.00;5111105;28;20032;-71
2023/12/19 02:25:31;;;;;;;13.15;8.68;;;;;;;3.57;99.23;100556.56;5111956;28;20028;-71
2023/12/19 02:27:59;;;;;;;18.42;9.05;;;;;;;3.64;99.00;100558.03;5091722;28;20024;-71
2023/12/19 02:30:25;;;;;;;12.48;7.97;;;;;;;3.68;98.33;100549.19;5091559;28;20019;-71
2023/12/19 02:32:50;;;;;;;16.58;8.77;;;;;;;3.84;98.10;100544.63;5091674;28;20039;-72
2023/12/19 02:35:16;;;;;;;15.35;8.15;;;;;;;3.86;98.24;100537.75;5093548;28;20039;-71
2023/12/19 02:37:41;;;;;;;15.63;8.00;;;;;;;3.98;97.61;100536.72;5093606;28;20027;-72
2023/12/19 02:40:09;;;;;;;10.02;7.32;;;;;;;4.03;96.31;100545.91;5111755;28;20465;-71
2023/12/19 02:42:40;;;;;;;12.55;7.90;;;;;;;4.11;95.09;100541.81;5093600;28;20024;-71
2023/12/19 02:45:06;;;;;;;11.48;7.20;;;;;;;4.16;95.06;100541.88;5093001;28;20024;-72
2023/12/19 02:47:31;;;;;;;12.25;7.25;;;;;;;4.10;95.25;100542.06;5111581;28;20085;-71
2023/12/19 02:49:57;;;;;;;12.07;8.15;;;;;;;3.99;95.83;100542.00;5089446;28;20024;-71
2023/12/19 02:52:22;;;;;;;12.32;7.85;;;;;;;3.86;96.69;100548.81;5091305;28;20024;-72
2023/12/19 02:54:48;;;;;;;11.40;7.85;;;;;;;3.92;97.79;100541.38;5091302;28;20028;-71
2023/12/19 02:57:13;;;;;;;12.10;7.35;;;;;;;4.06;97.70;100548.16;5091111;28;20024;-71
2023/12/19 02:59:39;;;;;;;11.73;7.25;;;;;;;4.16;96.28;100541.88;5073136;28;20028;-71
2023/12/19 03:02:04;;;;;;;11.50;7.45;;;;;;;4.30;96.03;100546.94;5090989;28;20024;-71
2023/12/19 03:04:29;;;;;;;11.07;6.85;;;;;;;4.41;95.42;100545.06;5104715;28;20047;-71
2023/12/19 03:06:55;;;;;;;9.75;6.68;;;;;;;4.40;95.06;100540.63;5109699;28;20028;-71
2023/12/19 03:09:20;;;;;;;11.02;8.00;;;;;;;4.54;92.62;100538.22;5111249;28;20068;-71
2023/12/19 03:12:03;;;;;;;21.45;11.73;;;;;;;4.74;91.32;100530.00;5111366;28;20042;-71
2023/12/19 03:14:34;;;;;;;10.80;6.68;;;;;;;5.00;87.49;100532.88;5111380;28;20385;-71
2023/12/19 03:17:03;;;;;;;;;;;;;;;5.08;86.46;100534.31;5094795;28;20059;-71
2023/12/19 03:19:29;;;;;;;12.23;5.13;;;;;;;5.16;84.82;100531.00;5090878;28;20380;-71
2023/12/19 03:21:54;;;;;;;6.82;4.68;;;;;;;5.31;83.16;100538.53;5072864;28;20089;-71
2023/12/19 03:24:21;;;;;;;10.18;6.88;;;;;;;5.28;83.47;100539.09;5090574;28;20036;-71
2023/12/19 03:26:46;;;;;;;8.00;5.70;;;;;;;5.30;82.88;100542.41;5090770;28;20028;-71
2023/12/19 03:29:12;;;;;;;11.32;7.90;;;;;;;5.22;83.63;100529.06;5090545;28;20053;-71
2023/12/19 03:31:37;;;;;;;13.20;7.93;;;;;;;5.20;83.83;100523.81;5090723;28;20512;-72
2023/12/19 03:34:03;;;;;;;17.25;9.38;;;;;;;5.05;84.73;100540.38;5100764;28;20024;-71
2023/12/19 03:36:29;;;;;;;12.75;7.85;;;;;;;4.80;86.25;100539.19;5092787;28;20031;-71
2023/12/19 03:38:54;;;;;;;16.25;9.48;;;;;;;4.70;87.75;100530.81;5111198;28;20028;-71
2023/12/19 03:41:20;;;;;;;26.42;11.40;;;;;;;4.59;87.97;100533.56;5111098;28;20404;-71
2023/12/19 03:43:45;;;;;;;22.98;11.27;;;;;;;4.50;89.56;100540.69;5111075;28;20393;-71
2023/12/19 03:46:11;;;;;;;16.52;7.50;;;;;;;4.62;89.39;100532.16;5102471;28;20501;-71
2023/12/19 03:48:36;;;;;;;10.60;7.50;;;;;;;4.56;89.24;100525.75;5072583;28;20397;-71
2023/12/19 03:51:03;;;;;;;16.45;8.10;;;;;;;4.31;90.47;100527.28;5072415;28;20104;-71
2023/12/19 03:53:28;;;;;;;15.90;9.52;;;;;;;4.18;91.76;100525.81;5090736;28;20035;-71
2023/12/19 03:55:54;;;;;;;23.65;12.52;;;;;;;3.95;92.75;100524.25;5090483;28;20488;-71
2023/12/19 03:58:20;;;;;;;23.58;12.32;;;;;;;3.78;94.64;100519.69;5072559;28;20028;-71
2023/12/19 04:00:45;;;;;;;24.98;14.45;;;;;;;3.75;94.70;100520.22;5072344;28;20509;-71
2023/12/19 04:03:11;;;;;;;20.20;11.43;;;;;;;3.62;96.32;100524.25;5096258;28;20024;-71
2023/12/19 04:05:36;;;;;;;18.88;11.07;;;;;;;3.60;96.14;100522.84;5110250;28;20043;-71
2023/12/19 04:08:02;;;;;;;14.40;10.90;;;;;;;3.47;96.98;100516.63;5110789;28;20488;-71
2023/12/19 04:10:28;;;;;;;18.30;11.30;;;;;;;3.50;98.19;100516.13;5092699;28;20397;-71
2023/12/19 04:12:53;;;;;;;16.85;11.45;;;;;;;3.48;97.81;100517.47;5110903;28;20034;-71
2023/12/19 04:15:19;;;;;;;16.40;10.85;;;;;;;3.40;97.78;100521.56;5089681;28;20458;-71
2023/12/19 04:17:44;;;;;;;16.48;10.60;;;;;;;3.48;97.75;100523.00;5075596;28;20024;-71
2023/12/19 04:20:11;;;;;;;12.95;8.38;;;;;;;3.54;97.10;100519.19;5089114;28;20497;-71
2023/12/19 04:22:36;;;;;;;16.80;9.40;;;;;;;3.62;96.81;100520.63;5113703;27;20027;-71
2023/12/19 04:25:02;;;;;;;18.15;9.38;;;;;;;3.70;96.58;100520.16;5104648;28;20046;-71
2023/12/19 04:27:28;;;;;;;19.23;10.82;;;;;;;3.67;96.49;100523.47;5093897;28;20020;-71
2023/12/19 04:29:55;;;;;;;17.25;11.20;;;;;;;3.77;96.19;100518.03;5093944;28;20412;-71
2023/12/19 04:32:21;;;;;;;21.50;13.68;;;;;;;3.70;96.39;100528.47;5075646;28;20462;-71
2023/12/19 04:34:47;;;;;;;51.97;25.02;;;;;;;3.63;96.63;100531.44;5091165;28;20023;-71
2023/12/19 04:37:12;;;;;;;53.22;24.08;;;;;;;3.54;97.08;100527.47;5088447;28;20028;-71
2023/12/19 04:39:38;;;;;;;59.03;27.90;;;;;;;3.57;97.13;100521.44;5075526;28;20020;-71
2023/12/19 04:42:07;;;;;;;42.80;22.20;;;;;;;3.62;97.57;100527.03;5075333;28;20510;-71
2023/12/19 04:44:33;;;;;;;53.78;23.85;;;;;;;3.62;96.62;100526.16;5093657;28;20035;-71
2023/12/19 04:46:59;;;;;;;42.97;22.15;;;;;;;3.68;96.63;100529.81;5094363;28;20476;-71
2023/12/19 04:49:24;;;;;;;37.42;20.05;;;;;;;3.68;95.63;100525.13;5093553;28;20089;-71
2023/12/19 04:51:51;;;;;;;21.55;12.63;;;;;;;3.74;95.08;100523.25;5075255;28;20027;-71
2023/12/19 04:54:16;;;;;;;24.08;13.88;;;;;;;3.70;95.25;100534.00;5074887;28;20035;-71
2023/12/19 04:56:42;;;;;;;22.05;13.63;;;;;;;3.74;95.59;100534.31;5093312;28;20028;-71
2023/12/19 04:59:07;;;;;;;23.13;14.82;;;;;;;3.67;95.24;100534.53;5075024;28;20027;-71
2023/12/19 05:01:33;;;;;;;18.58;11.93;;;;;;;3.83;93.77;100534.66;5084400;28;20043;-71
2023/12/19 05:03:59;;;;;;;22.50;13.50;;;;;;;3.82;93.88;100535.75;5086139;28;20064;-71
2023/12/19 05:06:24;;;;;;;39.58;19.92;;;;;;;3.84;94.06;100539.09;5074780;28;20113;-71
2023/12/19 05:08:50;;;;;;;33.45;17.50;;;;;;;3.79;93.98;100537.13;5093184;28;20122;-71
2023/12/19 05:11:15;;;;;;;19.85;12.95;;;;;;;3.68;95.27;100538.97;5074282;28;20504;-71
2023/12/19 05:13:41;;;;;;;19.52;13.65;;;;;;;3.63;96.02;100533.41;5093019;28;20450;-71
2023/12/19 05:16:13;;;;;;;24.70;15.13;;;;;;;3.63;95.68;100536.16;5076699;28;20416;-71
2023/12/19 05:18:41;;;;;;;22.40;14.43;;;;;;;3.62;95.67;100542.78;5075164;28;20104;-71
2023/12/19 05:21:07;;;;;;;25.33;14.20;;;;;;;3.59;95.97;100546.06;5074275;28;20028;-72
2023/12/19 05:23:35;;;;;;;26.63;14.55;;;;;;;3.63;95.96;100556.34;5090519;28;20061;-72
2023/12/19 05:26:01;;;;;;;32.83;17.38;;;;;;;3.54;95.94;100538.56;5088939;28;20032;-72
2023/12/19 05:28:26;;;;;;;20.05;13.13;;;;;;;3.48;95.66;100543.19;5094382;28;20031;-72
2023/12/19 05:30:56;;;;;;;19.52;12.30;;;;;;;3.42;96.55;100548.94;5094552;28;20031;-72
2023/12/19 05:33:24;;;;;;;16.88;10.40;;;;;;;3.41;96.32;100548.13;5113061;28;20030;-72
2023/12/19 05:35:51;;;;;;;20.10;11.60;;;;;;;3.28;96.85;100529.19;5111642;28;20038;-72
2023/12/19 05:38:17;;;;;;;21.05;13.25;;;;;;;3.26;97.72;100537.72;5111001;27;20027;-72
2023/12/19 05:40:42;;;;;;;38.05;16.92;;;;;;;3.25;97.49;100537.97;5107511;28;20480;-72
2023/12/19 05:43:08;;;;;;;30.02;16.80;;;;;;;3.16;98.22;100538.44;5111137;28;20050;-72
2023/12/19 05:45:34;;;;;;;27.58;15.25;;;;;;;3.30;97.94;100538.88;5090026;28;20027;-72
2023/12/19 05:48:00;;;;;;;55.03;25.77;;;;;;;3.34;97.30;100534.50;5098345;28;20113;-72
2023/12/19 05:50:25;;;;;;;53.67;24.48;;;;;;;3.40;96.72;100537.31;5091775;28;20038;-72
2023/12/19 05:52:52;;;;;;;58.47;26.48;;;;;;;3.41;96.72;100536.22;5087956;28;20032;-72
2023/12/19 05:55:19;;;;;;;60.60;28.77;;;;;;;3.43;97.11;100547.84;5091770;28;20543;-73
2023/12/19 05:57:45;;;;;;;68.10;34.97;;;;;;;3.32;97.67;100538.63;5095270;28;20084;-74
2023/12/19 06:00:11;;;;;;;63.15;30.70;;;;;;;3.33;97.53;100545.81;5092408;28;20035;-73
2023/12/19 06:02:36;;;;;;;43.95;21.75;;;;;;;3.36;97.35;100548.91;5091525;28;20020;-71
2023/12/19 06:05:07;;;;;;;44.67;21.90;;;;;;;3.31;97.53;100543.28;5110074;28;20069;-72
2023/12/19 06:07:32;;;;;;;;;;;;;;;3.39;96.96;100546.69;5105387;28;20135;-73
2023/12/19 06:09:58;;;;;;;41.20;15.98;;;;;;;3.50;94.88;100541.03;5073816;28;19939;-75
2023/12/19 06:12:23;;;;;;;35.08;16.80;;;;;;;3.68;93.79;100538.13;5091827;28;20024;-73
2023/12/19 06:14:48;;;;;;;31.92;15.93;;;;;;;3.90;92.74;100532.53;5073753;28;20020;-75
2023/12/19 06:17:14;;;;;;;19.15;11.43;;;;;;;3.92;92.05;100533.09;5091175;28;20020;-73
2023/12/19 06:19:39;;;;;;;23.45;9.95;;;;;;;4.11;91.48;100544.59;5092020;28;20020;-74
2023/12/19 06:22:05;;;;;;;15.60;9.45;;;;;;;4.28;90.99;100540.81;5080483;28;20031;-74
2023/12/19 06:24:30;;;;;;;15.10;9.20;;;;;;;4.33;89.75;100536.13;5091824;28;20024;-74
2023/12/19 06:26:56;;;;;;;14.18;9.02;;;;;;;4.50;89.57;100532.38;5079191;28;20023;-71
2023/12/19 06:29:21;;;;;;;13.80;7.88;;;;;;;4.62;88.79;100541.31;5079200;28;20137;-73
2023/12/19 06:31:47;;;;;;;13.35;8.85;;;;;;;4.75;88.32;100530.84;5098376;28;20038;-72
2023/12/19 06:34:12;;;;;;;12.70;6.97;;;;;;;4.77;88.58;100536.94;5103019;27;20019;-73
2023/12/19 06:36:40;;;;;;;13.70;7.43;;;;;;;4.90;88.35;100546.72;5106515;28;20403;-72
2023/12/19 06:39:06;;;;;;;10.18;7.15;;;;;;;4.90;87.22;100544.78;5107705;28;20516;-72
2023/12/19 06:41:31;;;;;;;10.18;7.32;;;;;;;5.10;86.59;100529.31;5090725;28;20019;-73
2023/12/19 06:43:57;;;;;;;15.68;9.23;;;;;;;5.09;85.57;100527.66;5085513;28;20031;-73
2023/12/19 06:46:22;;;;;;;17.85;10.40;;;;;;;5.17;85.68;100531.84;5090978;28;20106;-75
2023/12/19 06:48:48;;;;;;;23.05;11.88;;;;;;;5.22;85.61;100545.72;5090581;28;20027;-73
2023/12/19 06:51:27;;;;;;;23.27;10.43;;;;;;;5.19;85.00;100519.38;5086445;28;20020;-75
2023/12/19 06:53:56;;;;;;;14.68;8.82;;;;;;;5.31;85.13;100523.84;5073518;28;20114;-72
2023/12/19 06:56:26;;;;;;;14.32;7.97;;;;;;;5.40;85.31;100526.91;5090223;28;20433;-71
2023/12/19 06:58:52;;;;;;;12.45;7.55;;;;;;;5.54;83.98;100525.25;5093029;28;20035;-72
2023/12/19 07:01:18;;;;;;;9.50;5.55;;;;;;;5.73;82.72;100535.81;5072836;28;20534;-70
2023/12/19 07:03:44;;;;;;;8.40;5.97;;;;;;;5.90;81.70;100527.22;5089067;28;20115;-74
2023/12/19 07:06:15;;;;;;;10.70;6.80;;;;;;;6.07;81.17;100540.84;5087318;28;20162;-72
2023/12/19 07:08:41;;;;;;;15.63;10.48;;;;;;;6.20;80.11;100533.91;5072592;28;20090;-74
2023/12/19 07:11:07;;;;;;;38.80;8.63;;;;;;;6.43;78.65;100526.91;5101761;28;20516;-73
2023/12/19 07:13:32;;;;;;;36.30;9.98;;;;;;;6.64;77.59;100539.97;5089162;28;20038;-77
2023/12/19 07:15:58;;;;;;;11.48;7.03;;;;;;;6.77;77.63;100539.34;5088963;28;20019;-74
2023/12/19 07:18:24;;;;;;;14.05;6.63;;;;;;;6.82;77.04;100535.72;5101095;28;20062;-76
2023/12/19 07:20:49;;;;;;;9.25;5.60;;;;;;;6.92;75.51;100537.63;5081525;28;20051;-74
2023/12/19 07:23:15;;;;;;;10.85;5.38;;;;;;;6.98;76.19;100539.25;5083634;28;20057;-69
2023/12/19 07:25:41;;;;;;;8.07;5.82;;;;;;;6.94;76.59;100533.44;5105234;28;20020;-70
2023/12/19 07:28:07;;;;;;;8.70;5.82;;;;;;;7.03;75.78;100542.03;5096975;28;20023;-71
2023/12/19 07:30:32;;;;;;;10.77;5.03;;;;;;;7.15;74.97;100544.47;5108670;28;20039;-70
2023/12/19 07:32:59;;;;;;;8.57;5.47;;;;;;;7.30;75.06;100546.34;5108619;28;20027;-68
2023/12/19 07:35:25;;;;;;;9.82;6.10;;;;;;;7.25;75.40;100551.94;5086823;28;20085;-71
2023/12/19 07:37:50;;;;;;;10.85;6.35;;;;;;;7.32;76.87;100551.63;5119263;28;20027;-71
2023/12/19 07:40:16;;;;;;;14.20;6.30;;;;;;;7.39;75.98;100530.72;5107604;28;20019;-72
2023/12/19 07:42:43;;;;;;;19.25;8.43;;;;;;;7.42;76.72;100520.94;5106351;28;20038;-73
2023/12/19 07:45:08;;;;;;;32.45;12.40;;;;;;;7.40;76.30;100523.19;5085289;28;20024;-74
2023/12/19 07:47:34;;;;;;;28.55;11.13;;;;;;;7.41;76.24;100519.28;5088151;28;20032;-69
2023/12/19 07:49:59;;;;;;;15.15;7.80;;;;;;;7.42;76.44;100524.56;5100174;28;20046;-73
2023/12/19 07:52:25;;;;;;;10.75;6.97;;;;;;;7.56;76.26;100521.13;5092201;28;20032;-73
2023/12/19 07:54:51;;;;;;;9.60;6.50;;;;;;;7.64;74.76;100528.03;5108694;27;20077;-74
2023/12/19 07:57:17;;;;;;;11.90;5.72;;;;;;;7.63;74.21;100523.59;5092313;28;20030;-72
2023/12/19 07:59:42;;;;;;;13.95;7.30;;;;;;;7.76;74.54;100522.13;5096569;28;20036;-71
2023/12/19 08:02:08;;;;;;;15.95;8.10;;;;;;;7.82;74.75;100529.28;5077516;28;20027;-71
2023/12/19 08:04:36;;;;;;;8.80;6.28;;;;;;;7.89;74.85;100521.44;5073101;28;20051;-75
2023/12/19 08:07:03;;;;;;;11.85;6.78;;;;;;;7.91;75.19;100516.41;5086672;28;20160;-75
2023/12/19 08:09:29;;;;;;;12.52;6.75;;;;;;;7.79;76.54;100515.97;5098274;27;20018;-73
2023/12/19 08:11:56;;;;;;;10.68;6.72;;;;;;;7.90;74.86;100509.19;5104674;28;20823;-72
2023/12/19 08:14:22;;;;;;;11.07;7.88;;;;;;;7.96;74.05;100501.63;5081455;28;20545;-77
2023/12/19 08:16:48;;;;;;;13.55;7.88;;;;;;;8.03;75.54;100498.50;5097869;28;20062;-75
2023/12/19 08:19:17;;;;;;;18.38;11.50;;;;;;;7.94;75.74;100501.09;5073986;28;20456;-70
2023/12/19 08:21:50;;;;;;;17.60;9.85;;;;;;;8.14;75.82;100495.31;5100361;28;20067;-74
2023/12/19 08:24:16;;;;;;;17.02;9.70;;;;;;;8.14;76.36;100500.06;5095237;28;20102;-73
2023/12/19 08:26:52;;;;;;;30.73;14.98;;;;;;;7.97;75.78;100481.81;5081406;28;20068;-72
2023/12/19 08:29:18;;;;;;;36.05;11.85;;;;;;;8.19;76.37;100494.41;5099721;27;20498;-78
2023/12/19 08:31:47;;;;;;;12.65;7.75;;;;;;;8.21;75.88;100492.19;5095423;28;20020;-76
2023/12/19 08:34:16;;;;;;;14.15;8.30;;;;;;;8.20;75.56;100486.91;5091372;28;20125;-76
2023/12/19 08:36:42;;;;;;;14.02;8.13;;;;;;;8.42;75.77;100489.16;5098908;28;20630;-73
2023/12/19 08:39:10;;;;;;;15.02;8.95;;;;;;;8.52;75.92;100486.31;5103791;28;20046;-74
2023/12/19 08:41:35;;;;;;;12.20;8.48;;;;;;;8.55;73.15;100484.88;5100997;28;20059;-74
2023/12/19 08:44:04;;;;;;;18.70;10.95;;;;;;;8.65;74.29;100475.56;5090454;28;20063;-75
2023/12/19 08:46:30;;;;;;;26.30;11.35;;;;;;;8.81;73.85;100471.47;5108997;28;20020;-76
2023/12/19 08:48:56;;;;;;;15.60;8.85;;;;;;;8.96;74.96;100459.25;5083046;28;20404;-73
2023/12/19 08:51:21;;;;;;;20.45;10.48;;;;;;;9.06;73.91;100449.94;5110806;28;20450;-76
2023/12/19 08:53:47;;;;;;;20.20;12.02;;;;;;;9.16;71.01;100453.69;5090626;28;20060;-74
2023/12/19 08:56:12;;;;;;;24.02;10.98;;;;;;;9.12;72.72;100448.72;5087318;28;20081;-74
2023/12/19 08:58:38;;;;;;;16.23;7.80;;;;;;;9.18;73.96;100434.69;5090789;28;20020;-74
2023/12/19 09:01:04;;;;;;;11.57;6.60;;;;;;;9.24;73.70;100442.69;5096915;28;20023;-74
2023/12/19 09:03:29;;;;;;;11.95;6.72;;;;;;;9.39;73.71;100436.00;5080274;28;20022;-73
2023/12/19 09:05:55;;;;;;;10.88;6.18;;;;;;;9.46;72.81;100434.81;5093065;28;20056;-74
2023/12/19 09:08:23;;;;;;;15.20;7.88;;;;;;;9.61;70.83;100420.59;5100683;28;20733;-76
2023/12/19 09:10:49;;;;;;;10.43;6.95;;;;;;;9.75;71.63;100420.66;5081461;28;20069;-76
2023/12/19 09:13:16;;;;;;;11.85;6.18;;;;;;;9.93;71.38;100416.13;5094264;28;20109;-76
2023/12/19 09:15:41;;;;;;;14.00;7.28;;;;;;;10.21;70.48;100418.94;5106235;28;20115;-79
2023/12/19 09:18:07;;;;;;;11.05;6.63;;;;;;;10.48;68.76;100406.13;5089435;28;20114;-79
2023/12/19 09:20:32;;;;;;;9.30;6.60;;;;;;;10.39;68.00;100411.59;5093927;28;20035;-74
2023/12/19 09:22:58;;;;;;;10.90;5.72;;;;;;;10.44;65.93;100401.47;5106067;28;20397;-79
2023/12/19 09:25:23;;;;;;;10.13;5.70;;;;;;;10.65;64.46;100402.72;5081949;28;20226;-82
2023/12/19 09:27:49;;;;;;;13.70;6.80;;;;;;;10.72;64.17;100396.69;5101183;28;20027;-73
2023/12/19 09:30:16;;;;;;;12.35;5.80;;;;;;;10.85;64.03;100391.38;5088079;28;20031;-74
2023/12/19 09:32:42;;;;;;;17.17;9.27;;;;;;;10.70;62.91;100386.97;5107189;28;20092;-75
2023/12/19 09:35:08;;;;;;;17.10;11.13;;;;;;;10.63;64.46;100387.41;5081870;28;20522;-74
2023/12/19 09:37:34;;;;;;;17.20;8.60;;;;;;;10.75;66.20;100384.03;5101947;27;20051;-73
2023/12/19 09:40:00;;;;;;;26.25;10.88;;;;;;;10.88;65.46;100382.38;5081467;28;20122;-73
2023/12/19 09:42:27;;;;;;;11.55;5.95;;;;;;;10.81;66.28;100374.41;5081953;28;20034;-74
2023/12/19 09:44:52;;;;;;;9.27;5.75;;;;;;;10.64;64.99;100363.88;5108071;28;20028;-75
2023/12/19 09:47:25;;;;;;;6.95;4.47;;;;;;;10.55;66.87;100366.56;5090983;28;20027;-74
2023/12/19 09:49:53;;;;;;;11.20;5.97;;;;;;;10.58;66.76;100359.50;5087951;28;20050;-73
2023/12/19 09:52:24;;;;;;;20.55;10.80;;;;;;;10.65;66.43;100355.13;5079279;28;20027;-71
2023/12/19 09:54:50;;;;;;;14.63;8.73;;;;;;;10.62;67.91;100354.97;5109750;28;20038;-73
2023/12/19 09:57:19;;;;;;;54.08;25.77;;;;;;;10.58;67.70;100349.16;5106455;28;20038;-76
2023/12/19 09:59:50;;;;;;;27.73;13.45;;;;;;;10.79;67.43;100348.69;5094599;28;20030;-76
2023/12/19 10:02:17;;;;;;;146.60;55.97;;;;;;;10.75;67.05;100337.31;5109811;28;20092;-73
2023/12/19 10:04:43;;;;;;;102.65;40.65;;;;;;;10.71;66.43;100355.84;5075593;28;20052;-75
2023/12/19 10:07:09;;;;;;;24.95;12.38;;;;;;;10.85;66.62;100333.44;5094511;28;20475;-74
2023/12/19 10:09:49;;;;;;;17.98;13.48;;;;;;;10.76;67.54;100333.38;5097328;28;20110;-74
2023/12/19 10:12:15;;;;;;;11.23;5.80;;;;;;;10.90;66.24;100326.91;5081625;28;20149;-75
2023/12/19 10:14:41;;;;;;;8.07;5.10;;;;;;;10.90;69.26;100326.91;5102724;28;20174;-76
2023/12/19 10:17:14;;;;;;;7.88;4.38;;;;;;;11.15;66.58;100331.03;5077474;28;20019;-76
2023/12/19 10:19:40;;;;;;;15.43;5.75;;;;;;;11.30;67.97;100324.22;5106785;28;20099;-76
2023/12/19 10:22:06;;;;;;;15.45;6.70;;;;;;;11.47;67.64;100328.31;5105921;28;20190;-75
2023/12/19 10:24:32;;;;;;;12.57;6.70;;;;;;;11.59;65.40;100322.94;5081088;28;20515;-74
2023/12/19 10:27:07;;;;;;;26.67;8.18;;;;;;;11.78;66.29;100311.50;5101548;28;20027;-75
2023/12/19 10:29:40;;;;;;;20.20;6.95;;;;;;;11.97;64.89;100315.19;5108319;28;20043;-78
2023/12/19 10:32:12;;;;;;;12.25;6.00;;;;;;;12.08;64.31;100309.00;5109802;28;20020;-73
2023/12/19 10:34:38;;;;;;;13.63;8.15;;;;;;;12.15;63.80;100311.31;5099880;28;20785;-79
2023/12/19 10:37:15;;;;;;;16.38;7.20;;;;;;;12.29;62.74;100297.19;5103781;28;20043;-78
2023/12/19 10:39:44;;;;;;;20.10;9.10;;;;;;;12.64;62.77;100287.97;5099583;28;20111;-82
2023/12/19 10:42:10;;;;;;;11.43;5.57;;;;;;;12.90;61.58;100293.59;5079628;28;20030;-77
2023/12/19 10:44:40;;;;;;;15.52;7.53;;;;;;;12.74;58.36;100276.41;5088663;28;20023;-79
2023/12/19 10:47:10;;;;;;;9.25;5.72;;;;;;;12.69;57.09;100273.78;5104830;28;20027;-78
2023/12/19 10:49:37;;;;;;;11.07;6.75;;;;;;;12.99;56.41;100271.13;5109714;28;20024;-77
2023/12/19 10:52:09;;;;;;;5.88;3.33;;;;;;;12.72;54.98;100261.91;5105581;28;20048;-79
2023/12/19 10:54:36;;;;;;;10.70;4.43;;;;;;;12.83;54.34;100258.75;5108042;28;20042;-78
2023/12/19 10:57:08;;;;;;;8.32;3.35;;;;;;;12.92;54.10;100256.78;5109427;27;20027;-78
2023/12/19 10:59:52;;;;;;;4.57;3.08;;;;;;;13.16;53.07;100252.63;5109566;28;20035;-80
2023/12/19 11:02:39;;;;;;;7.55;3.40;;;;;;;12.97;53.76;100247.34;5077844;28;20031;-75
2023/12/19 11:05:28;;;;;;;8.40;3.35;;;;;;;13.13;53.05;100239.22;5105255;28;20050;-77
2023/12/19 11:07:58;;;;;;;5.32;2.85;;;;;;;13.08;53.02;100236.59;5096080;28;20097;-77
2023/12/19 11:10:29;;;;;;;6.88;3.55;;;;;;;13.15;53.81;100229.31;5102388;28;20034;-78
2023/12/19 11:12:54;;;;;;;;;;;;;;;13.09;53.57;100230.63;5068452;28;20027;-78
2023/12/19 11:15:21;;;;;;;8.65;4.60;;;;;;;13.20;54.58;100223.50;5108867;28;19938;-78
2023/12/19 11:18:03;;;;;;;8.18;5.28;;;;;;;13.14;53.72;100218.41;5074006;28;20036;-77
2023/12/19 11:20:57;;;;;;;5.15;3.40;;;;;;;13.00;52.32;100215.81;5083290;28;20031;-77